WMSA METAR and TAF | Updated Today

WMSA METAR

Sultan Abdul Aziz Shah International Airport

Observation time: 47 min. ago

WMSA 291000Z 30007KT 9999 FEW018 33/22 Q1006

Need help? Read our tutorial on how to read METARs or read the parsed version below.

Sultan Abdul Aziz Shah International Airport (WMSA) METAR

  • Weather conditions on Sun, 29 May 2022 10:00:00 +0000 (47 min. ago):
  • Present conditions: Dry
  • Clouds: A few at 549 meters
  • Visibility: Greater than 10 km
  • Wind: 300 degrees at 7 knots
  • Temperature: 33 celsius
  • Dew point: 22 celsius
  • Pressure: 1006 millibars
  • Remarks: None


Useful to know...

WMSA TAF

Sultan Abdul Aziz Shah International Airport

TAF WMSA 290500Z 2906/3006 29005KT 9999 FEW018
Observation time: 5:47 hr. ago
Need help? Read our tutorial on how to read TAFs or read the parsed version below.

Parsed version of TAF for Sultan Abdul Aziz Shah International Airport (WMSA)

  • From 29 May at 06:00 UTC, to day 30 of the month at 06:00 UTC
  • Clouds: A few at 549 meters
  • Visibility: Greater than 10 km
  • Wind: 290 degrees at 5